Terminal Aerodrome Forecast
Issued by NWS Boston, MA

Home | Current Version | Previous Version | Text Only | Print | Product List | Glossary On
Versions: 1 2 3 4 5 6 7 8 9 10 11 12 13 14 15 16 17 18 19 20
000
FTUS41 KBOX 181449 AAA
TAFORH
TAF AMD
KORH 181449Z 1815/1912 05005KT P6SM OVC015
     FM181800 12006KT P6SM BKN020
     FM190200 21005KT P6SM BKN150
     FM191000 27010KT P6SM SCT250=

USA.gov is the U.S. government's official web portal to all federal, state and local government web resources and services.